Main page
METAR-TAF:

METAR-TAF

Airports :

Tangier Ibn Battouta Airport

Tangier, Morocco

latitude: 35-44N, longitude: 005-54W, elevation: 19 m

Current weather observation

The report was made 39 minutes ago, at 10:00 UTC
Wind 3 kt from variable directions
Temperature 17°C
Humidity 100%
Pressure 1017 hPa
Visibility: 5000 m
Few clouds at a height of 500 ft
Scattered clouds at a height of 1500 ft
Broken clouds at a height of 2600 ft

METAR: GMTT 061000Z VRB03KT 5000 FEW005 SCT015 BKN026 17/17 Q1017 RERA NOSIG

Time: 11:39 (10:39 UTC)

Forecast

The report was made 5 hours and 39 minutes ago, at 05:00 UTC
Forecast valid from 06 at 06 UTC to 07 at 12 UTC
Wind 8 kt from the West
Visibility 10 km or more
Scattered clouds at a height of 2000 ft
Scattered clouds at a height of 4600 ft

TAF: GMTT 060500Z 0606/0712 26008KT 9999 SCT020 SCT046

Weather observations and forecasts of more than 4000 airports (METAR and TAF reports).

The available stations are represented by yellow and red dots on the map.

Hover mouse over dot to see the name of the station.

Then click to see weather observations and forecasts.

To change the map : click on the green buttons with a black cross to zoom in, on the green button with a dash to zoom out, or on the green arrows for adjacent maps.


METAR-TAF: